Victory City, Texas
Current Conditions -  °F | °C
As of 9:53 AM on Friday 24 Oct 2014 (Local Time) from KTXK Reporting Station
Clear Clear  
Wind Chill: 62°   Ceiling: Unl
Heat Index: 62°   Visibility: 10mi
Dew Point: 52°   Wind: 0mph
Humidity: 70%   Direction: NA
Pressure: 30.2"   Gusts: NA
Location:  33.474°N, 94.2882°W
Report Text: KTXK 241453Z 00000KT 10SM CLR 17/11 A3020 RMK AO2 SLP224 T01670111 53012
Loading
Personal Weather Stations






























Interactive Weather Map
Tropical Storm Tracking
New forecast layout! Learn more

10-Day Weather Forecast

Advertisements
Track Severe Weather on mobile